sensor_id;sensor_type;location;lat;lon;timestamp;pressure;altitude;pressure_sealevel;temperature;humidity
21574;BME280;10948;48.706;9.258;2022-08-21T00:01:19;97906.81;;;16.10;100.00
21574;BME280;10948;48.706;9.258;2022-08-21T00:03:45;97903.81;;;16.25;100.00
21574;BME280;10948;48.706;9.258;2022-08-21T00:06:10;97907.03;;;16.29;100.00
21574;BME280;10948;48.706;9.258;2022-08-21T00:08:36;97908.13;;;16.04;100.00
21574;BME280;10948;48.706;9.258;2022-08-21T00:11:01;97905.03;;;16.10;100.00
21574;BME280;10948;48.706;9.258;2022-08-21T00:13:27;97898.56;;;16.14;100.00
21574;BME280;10948;48.706;9.258;2022-08-21T00:15:52;97900.84;;;16.08;100.00
21574;BME280;10948;48.706;9.258;2022-08-21T00:18:18;97900.22;;;16.26;100.00
21574;BME280;10948;48.706;9.258;2022-08-21T00:20:44;97896.31;;;16.10;100.00
21574;BME280;10948;48.706;9.258;2022-08-21T00:23:10;97899.16;;;16.18;100.00
21574;BME280;10948;48.706;9.258;2022-08-21T00:25:36;97896.44;;;16.19;100.00
21574;BME280;10948;48.706;9.258;2022-08-21T00:28:02;97902.97;;;16.14;100.00
21574;BME280;10948;48.706;9.258;2022-08-21T00:30:27;97906.84;;;15.88;100.00
21574;BME280;10948;48.706;9.258;2022-08-21T00:32:53;97897.78;;;15.92;100.00
21574;BME280;10948;48.706;9.258;2022-08-21T00:35:20;97896.38;;;15.77;100.00
21574;BME280;10948;48.706;9.258;2022-08-21T00:37:47;97893.97;;;15.96;100.00
21574;BME280;10948;48.706;9.258;2022-08-21T00:40:14;97889.72;;;15.62;100.00
21574;BME280;10948;48.706;9.258;2022-08-21T00:42:40;97898.28;;;15.64;100.00
21574;BME280;10948;48.706;9.258;2022-08-21T00:45:06;97902.09;;;15.82;100.00
21574;BME280;10948;48.706;9.258;2022-08-21T00:47:31;97891.50;;;15.72;100.00
21574;BME280;10948;48.706;9.258;2022-08-21T00:49:56;97902.09;;;15.49;100.00
21574;BME280;10948;48.706;9.258;2022-08-21T00:52:24;97899.94;;;15.65;100.00
21574;BME280;10948;48.706;9.258;2022-08-21T00:54:51;97894.44;;;15.90;100.00
21574;BME280;10948;48.706;9.258;2022-08-21T00:57:19;97893.00;;;15.86;100.00
21574;BME280;10948;48.706;9.258;2022-08-21T00:59:46;97884.81;;;15.68;100.00
21574;BME280;10948;48.706;9.258;2022-08-21T01:02:13;97891.22;;;15.64;100.00
21574;BME280;10948;48.706;9.258;2022-08-21T01:04:39;97899.19;;;15.30;100.00
21574;BME280;10948;48.706;9.258;2022-08-21T01:07:04;97890.19;;;15.56;100.00
21574;BME280;10948;48.706;9.258;2022-08-21T01:09:29;97886.84;;;15.76;100.00
21574;BME280;10948;48.706;9.258;2022-08-21T01:11:55;97888.72;;;15.74;100.00
21574;BME280;10948;48.706;9.258;2022-08-21T01:14:20;97894.22;;;15.60;100.00
21574;BME280;10948;48.706;9.258;2022-08-21T01:16:46;97882.19;;;15.35;100.00
21574;BME280;10948;48.706;9.258;2022-08-21T01:19:13;97895.22;;;15.13;100.00
21574;BME280;10948;48.706;9.258;2022-08-21T01:21:40;97888.19;;;15.14;100.00
21574;BME280;10948;48.706;9.258;2022-08-21T01:24:05;97889.97;;;15.02;100.00
21574;BME280;10948;48.706;9.258;2022-08-21T01:26:31;97887.44;;;15.01;100.00
21574;BME280;10948;48.706;9.258;2022-08-21T01:28:58;97886.84;;;14.97;100.00
21574;BME280;10948;48.706;9.258;2022-08-21T01:31:26;97889.59;;;14.96;100.00
21574;BME280;10948;48.706;9.258;2022-08-21T01:33:52;97891.94;;;14.88;100.00
21574;BME280;10948;48.706;9.258;2022-08-21T01:36:18;97889.53;;;15.30;100.00
21574;BME280;10948;48.706;9.258;2022-08-21T01:38:43;97880.09;;;15.28;100.00
21574;BME280;10948;48.706;9.258;2022-08-21T01:41:08;97886.38;;;15.49;100.00
21574;BME280;10948;48.706;9.258;2022-08-21T01:43:34;97876.81;;;15.48;100.00
21574;BME280;10948;48.706;9.258;2022-08-21T01:45:59;97880.19;;;15.04;100.00
21574;BME280;10948;48.706;9.258;2022-08-21T01:48:24;97882.00;;;15.04;100.00
21574;BME280;10948;48.706;9.258;2022-08-21T01:50:50;97885.28;;;14.84;100.00
21574;BME280;10948;48.706;9.258;2022-08-21T01:53:15;97884.56;;;14.93;100.00
21574;BME280;10948;48.706;9.258;2022-08-21T01:55:41;97878.38;;;14.83;100.00
21574;BME280;10948;48.706;9.258;2022-08-21T01:58:06;97875.94;;;14.69;100.00
21574;BME280;10948;48.706;9.258;2022-08-21T02:00:31;97871.38;;;14.60;100.00
21574;BME280;10948;48.706;9.258;2022-08-21T02:02:57;97876.31;;;14.75;100.00
21574;BME280;10948;48.706;9.258;2022-08-21T02:05:22;97866.47;;;15.01;100.00
21574;BME280;10948;48.706;9.258;2022-08-21T02:07:48;97867.16;;;14.81;100.00
21574;BME280;10948;48.706;9.258;2022-08-21T02:10:15;97863.78;;;14.68;100.00
21574;BME280;10948;48.706;9.258;2022-08-21T02:12:41;97860.34;;;14.67;100.00
21574;BME280;10948;48.706;9.258;2022-08-21T02:15:07;97855.31;;;15.10;100.00
21574;BME280;10948;48.706;9.258;2022-08-21T02:17:43;97857.69;;;15.13;100.00
21574;BME280;10948;48.706;9.258;2022-08-21T02:20:10;97864.63;;;15.25;100.00
21574;BME280;10948;48.706;9.258;2022-08-21T02:22:36;97865.09;;;15.19;100.00
21574;BME280;10948;48.706;9.258;2022-08-21T02:25:01;97869.00;;;15.02;100.00
21574;BME280;10948;48.706;9.258;2022-08-21T02:27:27;97864.38;;;14.60;100.00
21574;BME280;10948;48.706;9.258;2022-08-21T02:29:52;97864.06;;;14.87;100.00
21574;BME280;10948;48.706;9.258;2022-08-21T02:32:18;97863.72;;;14.91;100.00
21574;BME280;10948;48.706;9.258;2022-08-21T02:34:43;97858.03;;;15.08;100.00
21574;BME280;10948;48.706;9.258;2022-08-21T02:37:08;97859.06;;;14.95;100.00
21574;BME280;10948;48.706;9.258;2022-08-21T02:39:33;97852.06;;;14.95;100.00
21574;BME280;10948;48.706;9.258;2022-08-21T02:41:59;97850.13;;;14.75;100.00
21574;BME280;10948;48.706;9.258;2022-08-21T02:44:25;97857.25;;;14.39;100.00
21574;BME280;10948;48.706;9.258;2022-08-21T02:46:50;97854.00;;;14.59;100.00
21574;BME280;10948;48.706;9.258;2022-08-21T02:49:15;97858.19;;;14.61;100.00
21574;BME280;10948;48.706;9.258;2022-08-21T02:51:41;97866.56;;;14.43;100.00
21574;BME280;10948;48.706;9.258;2022-08-21T02:54:06;97863.84;;;14.21;100.00
21574;BME280;10948;48.706;9.258;2022-08-21T02:56:31;97868.56;;;14.39;100.00
21574;BME280;10948;48.706;9.258;2022-08-21T02:58:56;97857.72;;;14.67;100.00
21574;BME280;10948;48.706;9.258;2022-08-21T03:01:22;97858.31;;;14.71;100.00
21574;BME280;10948;48.706;9.258;2022-08-21T03:03:47;97857.06;;;14.42;100.00
21574;BME280;10948;48.706;9.258;2022-08-21T03:06:15;97857.53;;;14.23;100.00
21574;BME280;10948;48.706;9.258;2022-08-21T03:08:41;97863.31;;;14.63;100.00
21574;BME280;10948;48.706;9.258;2022-08-21T03:11:06;97868.53;;;14.63;100.00
21574;BME280;10948;48.706;9.258;2022-08-21T03:13:32;97864.03;;;14.65;100.00
21574;BME280;10948;48.706;9.258;2022-08-21T03:15:57;97857.34;;;14.26;100.00
21574;BME280;10948;48.706;9.258;2022-08-21T03:18:22;97856.53;;;14.37;100.00
21574;BME280;10948;48.706;9.258;2022-08-21T03:20:48;97853.22;;;14.46;100.00
21574;BME280;10948;48.706;9.258;2022-08-21T03:23:14;97860.28;;;14.22;100.00
21574;BME280;10948;48.706;9.258;2022-08-21T03:25:40;97854.22;;;14.21;100.00
21574;BME280;10948;48.706;9.258;2022-08-21T03:28:08;97860.28;;;14.56;100.00
21574;BME280;10948;48.706;9.258;2022-08-21T03:30:34;97861.69;;;14.49;100.00
21574;BME280;10948;48.706;9.258;2022-08-21T03:32:59;97861.00;;;14.47;100.00
21574;BME280;10948;48.706;9.258;2022-08-21T03:35:26;97862.16;;;14.20;100.00
21574;BME280;10948;48.706;9.258;2022-08-21T03:37:52;97864.91;;;14.06;100.00
21574;BME280;10948;48.706;9.258;2022-08-21T03:40:18;97861.84;;;14.12;100.00
21574;BME280;10948;48.706;9.258;2022-08-21T03:42:45;97871.97;;;13.93;100.00
21574;BME280;10948;48.706;9.258;2022-08-21T03:45:12;97875.63;;;14.03;100.00
21574;BME280;10948;48.706;9.258;2022-08-21T03:47:37;97875.19;;;14.09;100.00
21574;BME280;10948;48.706;9.258;2022-08-21T03:50:03;97872.44;;;14.10;100.00
21574;BME280;10948;48.706;9.258;2022-08-21T03:52:29;97873.16;;;13.89;100.00
21574;BME280;10948;48.706;9.258;2022-08-21T03:54:55;97882.88;;;13.87;100.00
21574;BME280;10948;48.706;9.258;2022-08-21T03:57:20;97881.75;;;14.14;100.00
21574;BME280;10948;48.706;9.258;2022-08-21T03:59:46;97882.66;;;14.26;100.00
21574;BME280;10948;48.706;9.258;2022-08-21T04:02:12;97873.78;;;14.16;100.00
21574;BME280;10948;48.706;9.258;2022-08-21T04:04:41;97881.63;;;14.16;100.00
21574;BME280;10948;48.706;9.258;2022-08-21T04:07:06;97879.81;;;14.05;100.00
21574;BME280;10948;48.706;9.258;2022-08-21T04:09:31;97872.78;;;14.06;100.00
21574;BME280;10948;48.706;9.258;2022-08-21T04:11:56;97873.66;;;14.17;100.00
21574;BME280;10948;48.706;9.258;2022-08-21T04:14:23;97880.03;;;14.26;100.00
21574;BME280;10948;48.706;9.258;2022-08-21T04:16:48;97881.91;;;14.00;100.00
21574;BME280;10948;48.706;9.258;2022-08-21T04:19:13;97878.16;;;13.92;100.00
21574;BME280;10948;48.706;9.258;2022-08-21T04:21:39;97872.53;;;13.85;100.00
21574;BME280;10948;48.706;9.258;2022-08-21T04:24:06;97885.56;;;13.98;100.00
21574;BME280;10948;48.706;9.258;2022-08-21T04:26:32;97884.53;;;13.88;100.00
21574;BME280;10948;48.706;9.258;2022-08-21T04:28:59;97897.41;;;13.91;100.00
21574;BME280;10948;48.706;9.258;2022-08-21T04:31:24;97893.56;;;14.20;100.00
21574;BME280;10948;48.706;9.258;2022-08-21T04:33:50;97895.66;;;14.15;100.00
21574;BME280;10948;48.706;9.258;2022-08-21T04:36:16;97901.63;;;13.81;100.00
21574;BME280;10948;48.706;9.258;2022-08-21T04:38:41;97903.28;;;13.82;100.00
21574;BME280;10948;48.706;9.258;2022-08-21T04:41:06;97906.34;;;14.12;100.00
21574;BME280;10948;48.706;9.258;2022-08-21T04:43:31;97898.34;;;14.73;100.00
21574;BME280;10948;48.706;9.258;2022-08-21T04:45:57;97903.78;;;15.50;100.00
21574;BME280;10948;48.706;9.258;2022-08-21T04:48:22;97899.69;;;15.79;100.00
21574;BME280;10948;48.706;9.258;2022-08-21T04:55:44;97908.91;;;16.49;96.38
21574;BME280;10948;48.706;9.258;2022-08-21T04:58:12;97894.69;;;17.53;91.02
21574;BME280;10948;48.706;9.258;2022-08-21T05:00:38;97903.59;;;18.31;84.25
21574;BME280;10948;48.706;9.258;2022-08-21T05:03:04;97897.94;;;18.93;78.39
21574;BME280;10948;48.706;9.258;2022-08-21T05:05:30;97902.09;;;19.33;75.16
21574;BME280;10948;48.706;9.258;2022-08-21T05:07:56;97901.91;;;19.35;74.46
21574;BME280;10948;48.706;9.258;2022-08-21T05:10:22;97901.13;;;18.77;74.90
21574;BME280;10948;48.706;9.258;2022-08-21T05:12:47;97903.28;;;19.48;72.25
21574;BME280;10948;48.706;9.258;2022-08-21T05:15:13;97909.78;;;19.90;71.96
21574;BME280;10948;48.706;9.258;2022-08-21T05:17:38;97910.06;;;20.51;68.57
21574;BME280;10948;48.706;9.258;2022-08-21T05:20:04;97911.31;;;20.82;67.84
21574;BME280;10948;48.706;9.258;2022-08-21T05:22:29;97905.50;;;21.82;63.91
21574;BME280;10948;48.706;9.258;2022-08-21T05:24:56;97916.06;;;22.07;61.29
21574;BME280;10948;48.706;9.258;2022-08-21T05:27:21;97907.16;;;22.24;60.66
21574;BME280;10948;48.706;9.258;2022-08-21T05:29:47;97917.13;;;22.30;61.13
21574;BME280;10948;48.706;9.258;2022-08-21T05:32:12;97919.59;;;21.39;64.16
21574;BME280;10948;48.706;9.258;2022-08-21T05:34:38;97926.31;;;20.29;69.50
21574;BME280;10948;48.706;9.258;2022-08-21T05:37:03;97924.31;;;19.77;74.38
21574;BME280;10948;48.706;9.258;2022-08-21T05:39:29;97911.19;;;19.94;74.85
21574;BME280;10948;48.706;9.258;2022-08-21T05:41:54;97923.09;;;20.08;72.68
21574;BME280;10948;48.706;9.258;2022-08-21T05:44:20;97926.97;;;20.13;74.08
21574;BME280;10948;48.706;9.258;2022-08-21T05:46:45;97927.19;;;20.47;72.85
21574;BME280;10948;48.706;9.258;2022-08-21T05:49:11;97925.06;;;20.50;75.24
21574;BME280;10948;48.706;9.258;2022-08-21T05:51:36;97924.69;;;20.63;74.62
21574;BME280;10948;48.706;9.258;2022-08-21T05:54:02;97923.84;;;20.27;74.23
21574;BME280;10948;48.706;9.258;2022-08-21T05:56:27;97927.50;;;20.61;73.48
21574;BME280;10948;48.706;9.258;2022-08-21T05:58:52;97923.75;;;20.81;71.31
21574;BME280;10948;48.706;9.258;2022-08-21T06:01:17;97915.38;;;21.03;72.01
21574;BME280;10948;48.706;9.258;2022-08-21T06:03:43;97918.63;;;20.97;71.94
21574;BME280;10948;48.706;9.258;2022-08-21T06:06:08;97919.81;;;21.20;73.52
21574;BME280;10948;48.706;9.258;2022-08-21T06:08:35;97912.63;;;21.81;70.57
21574;BME280;10948;48.706;9.258;2022-08-21T06:11:01;97914.97;;;22.83;65.16
21574;BME280;10948;48.706;9.258;2022-08-21T06:13:27;97917.69;;;22.00;69.72
21574;BME280;10948;48.706;9.258;2022-08-21T06:16:03;97917.53;;;22.43;68.44
21574;BME280;10948;48.706;9.258;2022-08-21T06:18:29;97918.66;;;23.46;65.29
21574;BME280;10948;48.706;9.258;2022-08-21T06:20:54;97921.81;;;23.34;62.97
21574;BME280;10948;48.706;9.258;2022-08-21T06:23:19;97918.75;;;23.84;62.96
21574;BME280;10948;48.706;9.258;2022-08-21T06:25:44;97923.50;;;24.13;62.27
21574;BME280;10948;48.706;9.258;2022-08-21T06:28:10;97913.72;;;24.97;60.03
21574;BME280;10948;48.706;9.258;2022-08-21T06:30:35;97917.88;;;25.44;58.47
21574;BME280;10948;48.706;9.258;2022-08-21T06:33:01;97911.97;;;26.29;57.50
21574;BME280;10948;48.706;9.258;2022-08-21T06:35:27;97908.03;;;27.38;52.89
21574;BME280;10948;48.706;9.258;2022-08-21T06:37:54;97911.78;;;26.81;54.32
21574;BME280;10948;48.706;9.258;2022-08-21T06:40:19;97917.16;;;25.05;58.68
21574;BME280;10948;48.706;9.258;2022-08-21T06:42:44;97917.44;;;25.70;58.32
21574;BME280;10948;48.706;9.258;2022-08-21T06:45:10;97911.56;;;25.60;59.36
21574;BME280;10948;48.706;9.258;2022-08-21T06:47:35;97914.00;;;26.13;57.68
21574;BME280;10948;48.706;9.258;2022-08-21T06:50:00;97914.19;;;26.26;56.55
21574;BME280;10948;48.706;9.258;2022-08-21T06:52:26;97910.22;;;26.22;56.61
21574;BME280;10948;48.706;9.258;2022-08-21T06:54:51;97908.56;;;25.26;58.99
21574;BME280;10948;48.706;9.258;2022-08-21T06:57:16;97910.72;;;26.75;57.33
21574;BME280;10948;48.706;9.258;2022-08-21T06:59:41;97908.97;;;28.41;52.33
21574;BME280;10948;48.706;9.258;2022-08-21T07:02:07;97902.00;;;29.78;49.18
21574;BME280;10948;48.706;9.258;2022-08-21T07:04:32;97909.41;;;31.03;47.00
21574;BME280;10948;48.706;9.258;2022-08-21T07:06:57;97904.56;;;32.69;44.78
21574;BME280;10948;48.706;9.258;2022-08-21T07:09:23;97910.50;;;31.26;46.53
21574;BME280;10948;48.706;9.258;2022-08-21T07:11:49;97902.38;;;32.06;43.35
21574;BME280;10948;48.706;9.258;2022-08-21T07:14:15;97899.00;;;33.87;40.90
21574;BME280;10948;48.706;9.258;2022-08-21T07:16:40;97896.06;;;34.00;41.30
21574;BME280;10948;48.706;9.258;2022-08-21T07:19:06;97894.44;;;35.62;38.71
21574;BME280;10948;48.706;9.258;2022-08-21T07:21:31;97900.88;;;36.11;37.51
21574;BME280;10948;48.706;9.258;2022-08-21T07:23:56;97899.22;;;36.64;37.20
21574;BME280;10948;48.706;9.258;2022-08-21T07:26:22;97897.56;;;36.85;37.74
21574;BME280;10948;48.706;9.258;2022-08-21T07:28:48;97900.03;;;35.72;38.05
21574;BME280;10948;48.706;9.258;2022-08-21T07:31:14;97897.56;;;35.87;37.80
21574;BME280;10948;48.706;9.258;2022-08-21T07:33:40;97898.41;;;39.29;34.14
21574;BME280;10948;48.706;9.258;2022-08-21T07:36:06;97884.78;;;39.44;33.49
21574;BME280;10948;48.706;9.258;2022-08-21T07:38:31;97891.13;;;37.75;36.63
21574;BME280;10948;48.706;9.258;2022-08-21T07:40:57;97886.06;;;38.35;33.68
21574;BME280;10948;48.706;9.258;2022-08-21T07:43:24;97892.28;;;40.52;32.77
21574;BME280;10948;48.706;9.258;2022-08-21T07:45:50;97886.44;;;42.22;31.13
21574;BME280;10948;48.706;9.258;2022-08-21T07:48:16;97890.75;;;39.26;31.29
21574;BME280;10948;48.706;9.258;2022-08-21T07:50:41;97875.16;;;42.29;28.80
21574;BME280;10948;48.706;9.258;2022-08-21T07:53:07;97880.16;;;43.61;28.39
21574;BME280;10948;48.706;9.258;2022-08-21T07:55:32;97879.19;;;42.60;29.06
21574;BME280;10948;48.706;9.258;2022-08-21T07:57:57;97883.97;;;39.44;30.22
21574;BME280;10948;48.706;9.258;2022-08-21T08:00:24;97880.41;;;35.32;35.70
21574;BME280;10948;48.706;9.258;2022-08-21T08:02:50;97885.28;;;40.94;30.32
21574;BME280;10948;48.706;9.258;2022-08-21T08:05:16;97874.66;;;45.72;25.79
21574;BME280;10948;48.706;9.258;2022-08-21T08:07:42;97876.78;;;44.82;26.54
21574;BME280;10948;48.706;9.258;2022-08-21T08:10:07;97871.56;;;40.41;28.34
21574;BME280;10948;48.706;9.258;2022-08-21T08:12:34;97877.72;;;45.71;26.19
21574;BME280;10948;48.706;9.258;2022-08-21T08:14:59;97873.63;;;42.18;27.40
21574;BME280;10948;48.706;9.258;2022-08-21T08:17:25;97872.28;;;45.79;26.04
21574;BME280;10948;48.706;9.258;2022-08-21T08:19:51;97876.41;;;49.70;23.50
21574;BME280;10948;48.706;9.258;2022-08-21T08:22:16;97863.38;;;48.30;23.08
21574;BME280;10948;48.706;9.258;2022-08-21T08:24:44;97857.22;;;47.11;23.63
21574;BME280;10948;48.706;9.258;2022-08-21T08:27:09;97855.41;;;44.93;25.32
21574;BME280;10948;48.706;9.258;2022-08-21T08:29:35;97844.22;;;47.54;23.21
21574;BME280;10948;48.706;9.258;2022-08-21T08:32:00;97846.81;;;49.29;22.36
21574;BME280;10948;48.706;9.258;2022-08-21T08:34:25;97846.06;;;48.42;22.58
21574;BME280;10948;48.706;9.258;2022-08-21T08:36:51;97848.63;;;53.16;20.60
21574;BME280;10948;48.706;9.258;2022-08-21T08:39:16;97838.31;;;42.82;26.72
21574;BME280;10948;48.706;9.258;2022-08-21T08:41:41;97830.13;;;48.10;23.72
21574;BME280;10948;48.706;9.258;2022-08-21T08:44:08;97837.66;;;51.81;20.43
21574;BME280;10948;48.706;9.258;2022-08-21T08:46:49;97831.78;;;48.98;21.78
21574;BME280;10948;48.706;9.258;2022-08-21T08:54:11;97825.03;;;55.13;19.10
21574;BME280;10948;48.706;9.258;2022-08-21T08:56:38;97818.03;;;48.23;23.01
21574;BME280;10948;48.706;9.258;2022-08-21T08:59:09;97805.72;;;39.69;29.12
21574;BME280;10948;48.706;9.258;2022-08-21T09:01:37;97800.72;;;43.38;26.48
21574;BME280;10948;48.706;9.258;2022-08-21T09:04:03;97807.91;;;39.37;29.41
21574;BME280;10948;48.706;9.258;2022-08-21T09:09:22;97798.16;;;42.91;27.21
21574;BME280;10948;48.706;9.258;2022-08-21T09:12:15;97799.75;;;40.89;29.42
21574;BME280;10948;48.706;9.258;2022-08-21T09:20:16;97789.97;;;40.83;28.87
21574;BME280;10948;48.706;9.258;2022-08-21T09:22:46;97787.28;;;42.25;27.71
21574;BME280;10948;48.706;9.258;2022-08-21T09:25:26;97779.59;;;41.80;27.57
21574;BME280;10948;48.706;9.258;2022-08-21T09:27:52;97786.53;;;41.68;28.41
21574;BME280;10948;48.706;9.258;2022-08-21T09:30:19;97784.53;;;41.50;28.15
21574;BME280;10948;48.706;9.258;2022-08-21T09:32:48;97779.75;;;42.36;27.49
21574;BME280;10948;48.706;9.258;2022-08-21T09:35:15;97776.16;;;38.46;31.82
21574;BME280;10948;48.706;9.258;2022-08-21T09:38:02;97775.88;;;40.13;29.18
21574;BME280;10948;48.706;9.258;2022-08-21T09:40:38;97773.38;;;36.27;33.80
21574;BME280;10948;48.706;9.258;2022-08-21T09:43:05;97777.84;;;36.38;32.64
21574;BME280;10948;48.706;9.258;2022-08-21T09:45:31;97772.84;;;38.34;31.27
21574;BME280;10948;48.706;9.258;2022-08-21T09:48:07;97767.00;;;39.12;29.48
21574;BME280;10948;48.706;9.258;2022-08-21T09:50:33;97769.31;;;36.73;31.21
21574;BME280;10948;48.706;9.258;2022-08-21T09:52:58;97763.44;;;35.19;34.59
21574;BME280;10948;48.706;9.258;2022-08-21T09:55:32;97766.47;;;36.89;32.79
21574;BME280;10948;48.706;9.258;2022-08-21T09:58:17;97757.06;;;38.36;30.91
21574;BME280;10948;48.706;9.258;2022-08-21T10:00:43;97753.28;;;37.39;32.61
21574;BME280;10948;48.706;9.258;2022-08-21T10:05:34;97752.66;;;36.16;31.66
21574;BME280;10948;48.706;9.258;2022-08-21T10:08:00;97750.66;;;40.79;28.97
21574;BME280;10948;48.706;9.258;2022-08-21T10:10:28;97748.72;;;39.53;29.05
21574;BME280;10948;48.706;9.258;2022-08-21T10:12:58;97750.69;;;39.02;29.73
21574;BME280;10948;48.706;9.258;2022-08-21T10:15:32;97740.53;;;35.81;33.06
21574;BME280;10948;48.706;9.258;2022-08-21T10:23:24;97735.94;;;39.43;30.64
21574;BME280;10948;48.706;9.258;2022-08-21T10:28:24;97734.00;;;39.59;30.46
21574;BME280;10948;48.706;9.258;2022-08-21T10:30:57;97729.38;;;38.59;29.92
21574;BME280;10948;48.706;9.258;2022-08-21T10:36:16;97723.66;;;34.42;32.40
21574;BME280;10948;48.706;9.258;2022-08-21T10:51:38;97714.53;;;39.90;29.44
21574;BME280;10948;48.706;9.258;2022-08-21T10:56:49;97708.22;;;40.53;27.91
21574;BME280;10948;48.706;9.258;2022-08-21T11:09:42;97699.84;;;38.01;29.82
21574;BME280;10948;48.706;9.258;2022-08-21T11:12:19;97703.16;;;36.31;29.69
21574;BME280;10948;48.706;9.258;2022-08-21T11:17:16;97691.00;;;40.14;28.59
21574;BME280;10948;48.706;9.258;2022-08-21T11:19:45;97690.66;;;36.03;32.37
21574;BME280;10948;48.706;9.258;2022-08-21T11:22:26;97691.19;;;36.80;31.64
21574;BME280;10948;48.706;9.258;2022-08-21T11:24:57;97685.59;;;37.84;29.83
21574;BME280;10948;48.706;9.258;2022-08-21T11:27:33;97686.94;;;39.03;29.62
21574;BME280;10948;48.706;9.258;2022-08-21T11:30:01;97683.53;;;39.71;28.88
21574;BME280;10948;48.706;9.258;2022-08-21T11:42:54;97678.00;;;35.87;31.58
21574;BME280;10948;48.706;9.258;2022-08-21T11:50:36;97667.78;;;34.97;31.95
21574;BME280;10948;48.706;9.258;2022-08-21T11:53:08;97664.31;;;33.05;34.45
21574;BME280;10948;48.706;9.258;2022-08-21T11:55:36;97663.09;;;36.38;30.74
21574;BME280;10948;48.706;9.258;2022-08-21T11:58:17;97660.38;;;35.25;31.87
21574;BME280;10948;48.706;9.258;2022-08-21T12:03:14;97667.66;;;31.84;35.02
21574;BME280;10948;48.706;9.258;2022-08-21T12:05:42;97668.34;;;32.09;35.27
21574;BME280;10948;48.706;9.258;2022-08-21T12:10:37;97656.75;;;34.21;32.99
21574;BME280;10948;48.706;9.258;2022-08-21T12:13:10;97647.84;;;34.53;32.69
21574;BME280;10948;48.706;9.258;2022-08-21T12:15:36;97647.72;;;32.44;35.23
21574;BME280;10948;48.706;9.258;2022-08-21T12:18:07;97657.66;;;31.20;35.01
21574;BME280;10948;48.706;9.258;2022-08-21T12:23:28;97646.50;;;36.29;32.12
21574;BME280;10948;48.706;9.258;2022-08-21T12:26:01;97638.44;;;37.07;30.70
21574;BME280;10948;48.706;9.258;2022-08-21T12:28:27;97636.09;;;35.14;31.81
21574;BME280;10948;48.706;9.258;2022-08-21T12:30:53;97637.28;;;32.59;35.46
21574;BME280;10948;48.706;9.258;2022-08-21T12:33:24;97637.16;;;34.14;32.74
21574;BME280;10948;48.706;9.258;2022-08-21T12:35:52;97625.31;;;34.97;32.61
21574;BME280;10948;48.706;9.258;2022-08-21T12:38:22;97635.31;;;32.14;34.13
21574;BME280;10948;48.706;9.258;2022-08-21T12:43:35;97623.25;;;31.58;34.67
21574;BME280;10948;48.706;9.258;2022-08-21T12:46:02;97628.03;;;31.02;35.86
21574;BME280;10948;48.706;9.258;2022-08-21T12:51:17;97610.97;;;32.84;34.67
21574;BME280;10948;48.706;9.258;2022-08-21T12:53:53;97618.53;;;30.81;35.87
21574;BME280;10948;48.706;9.258;2022-08-21T12:56:19;97612.38;;;32.87;34.26
21574;BME280;10948;48.706;9.258;2022-08-21T12:58:53;97607.84;;;32.35;34.60
21574;BME280;10948;48.706;9.258;2022-08-21T13:04:20;97613.88;;;30.70;36.31
21574;BME280;10948;48.706;9.258;2022-08-21T13:06:47;97611.28;;;30.82;37.03
21574;BME280;10948;48.706;9.258;2022-08-21T13:09:14;97605.41;;;33.14;35.40
21574;BME280;10948;48.706;9.258;2022-08-21T13:11:41;97616.69;;;31.53;35.51
21574;BME280;10948;48.706;9.258;2022-08-21T13:14:10;97607.38;;;31.67;36.17
21574;BME280;10948;48.706;9.258;2022-08-21T13:16:40;97610.47;;;32.64;35.73
21574;BME280;10948;48.706;9.258;2022-08-21T13:19:06;97604.44;;;31.40;35.96
21574;BME280;10948;48.706;9.258;2022-08-21T13:21:38;97611.03;;;32.66;34.32
21574;BME280;10948;48.706;9.258;2022-08-21T13:26:39;97602.81;;;31.39;36.61
21574;BME280;10948;48.706;9.258;2022-08-21T13:29:08;97608.66;;;32.35;34.59
21574;BME280;10948;48.706;9.258;2022-08-21T13:31:36;97601.00;;;31.51;35.18
21574;BME280;10948;48.706;9.258;2022-08-21T13:34:02;97606.09;;;31.70;35.10
21574;BME280;10948;48.706;9.258;2022-08-21T13:36:31;97606.53;;;31.38;35.97
21574;BME280;10948;48.706;9.258;2022-08-21T13:38:57;97603.91;;;31.13;36.81
21574;BME280;10948;48.706;9.258;2022-08-21T13:41:27;97593.31;;;31.83;35.94
21574;BME280;10948;48.706;9.258;2022-08-21T13:43:58;97596.50;;;31.45;35.09
21574;BME280;10948;48.706;9.258;2022-08-21T13:46:24;97586.53;;;30.31;36.73
21574;BME280;10948;48.706;9.258;2022-08-21T13:48:51;97589.22;;;29.25;37.94
21574;BME280;10948;48.706;9.258;2022-08-21T13:51:16;97586.28;;;29.33;38.44
21574;BME280;10948;48.706;9.258;2022-08-21T13:56:09;97588.38;;;29.99;36.94
21574;BME280;10948;48.706;9.258;2022-08-21T13:58:46;97583.72;;;29.51;37.04
21574;BME280;10948;48.706;9.258;2022-08-21T14:01:22;97584.38;;;30.39;35.75
21574;BME280;10948;48.706;9.258;2022-08-21T14:03:48;97580.22;;;30.86;36.30
21574;BME280;10948;48.706;9.258;2022-08-21T14:06:15;97577.09;;;31.07;36.40
21574;BME280;10948;48.706;9.258;2022-08-21T14:08:41;97584.84;;;31.51;35.74
21574;BME280;10948;48.706;9.258;2022-08-21T14:11:09;97580.38;;;31.45;37.04
21574;BME280;10948;48.706;9.258;2022-08-21T14:13:42;97583.09;;;30.42;35.36
21574;BME280;10948;48.706;9.258;2022-08-21T14:18:44;97581.69;;;29.53;36.14
21574;BME280;10948;48.706;9.258;2022-08-21T14:21:09;97578.44;;;29.38;36.40
21574;BME280;10948;48.706;9.258;2022-08-21T14:23:35;97581.75;;;30.02;36.44
21574;BME280;10948;48.706;9.258;2022-08-21T14:26:02;97579.94;;;30.27;36.88
21574;BME280;10948;48.706;9.258;2022-08-21T14:28:48;97576.38;;;31.18;36.13
21574;BME280;10948;48.706;9.258;2022-08-21T14:31:14;97575.59;;;30.93;36.00
21574;BME280;10948;48.706;9.258;2022-08-21T14:33:40;97580.97;;;30.93;37.00
21574;BME280;10948;48.706;9.258;2022-08-21T14:36:06;97568.88;;;30.17;37.61